createdAt,value
2017-11-14T00:01:35.471Z,3.37
2017-11-14T00:04:03.771Z,2.87
2017-11-14T00:06:32.876Z,3.47
2017-11-14T00:09:01.971Z,3.30
2017-11-14T00:11:31.066Z,3.20
2017-11-14T00:14:00.142Z,2.73
2017-11-14T00:16:28.442Z,3.07
2017-11-14T00:18:57.536Z,2.97
2017-11-14T00:21:25.821Z,2.27
2017-11-14T00:23:54.118Z,3.13
2017-11-14T00:26:23.188Z,3.30
2017-11-14T00:28:51.500Z,2.87
2017-11-14T00:31:20.568Z,3.37
2017-11-14T00:33:48.890Z,3.53
2017-11-14T00:36:17.224Z,2.50
2017-11-14T00:38:45.654Z,2.70
2017-11-14T00:41:14.734Z,2.60
2017-11-14T00:43:43.812Z,1.90
2017-11-14T00:46:12.871Z,2.70
2017-11-14T00:48:41.174Z,2.40
2017-11-14T00:51:09.502Z,1.37
2017-11-14T00:53:38.567Z,1.67
2017-11-14T00:56:06.869Z,1.97
2017-11-14T00:58:35.177Z,2.17
2017-11-14T01:01:03.463Z,2.07
2017-11-14T01:03:31.774Z,1.90
2017-11-14T01:06:00.152Z,1.57
2017-11-14T01:08:28.460Z,1.50
2017-11-14T01:10:56.771Z,2.10
2017-11-14T01:13:25.847Z,1.43
2017-11-14T01:15:54.146Z,1.53
2017-11-14T01:18:22.482Z,1.90
2017-11-14T01:20:50.814Z,2.40
2017-11-14T01:23:19.875Z,2.17
2017-11-14T01:25:48.203Z,1.70
2017-11-14T01:28:17.409Z,2.00
2017-11-14T01:30:46.469Z,1.70
2017-11-14T01:33:14.783Z,2.13
2017-11-14T01:35:43.848Z,1.77
2017-11-14T01:38:12.158Z,2.27
2017-11-14T01:40:41.243Z,2.60
2017-11-14T01:43:09.567Z,2.50
2017-11-14T01:45:37.874Z,1.40
2017-11-14T01:48:06.173Z,1.73
2017-11-14T01:50:36.017Z,2.80
2017-11-14T01:53:05.090Z,2.63
2017-11-14T01:55:34.173Z,1.60
2017-11-14T01:58:02.627Z,1.60
2017-11-14T02:00:48.795Z,1.57
2017-11-14T02:03:17.849Z,2.00
2017-11-14T02:05:46.154Z,1.93
2017-11-14T02:08:15.361Z,1.93
2017-11-14T02:10:44.424Z,1.77
2017-11-14T02:13:12.759Z,1.90
2017-11-14T02:15:41.850Z,1.70
2017-11-14T02:18:10.983Z,1.63
2017-11-14T02:20:39.282Z,1.70
2017-11-14T02:23:07.574Z,1.60
2017-11-14T02:25:35.867Z,1.80
2017-11-14T02:28:04.159Z,2.50
2017-11-14T02:30:32.465Z,2.00
2017-11-14T02:33:01.526Z,1.97
2017-11-14T02:35:29.836Z,1.70
2017-11-14T02:37:58.900Z,2.07
2017-11-14T02:40:27.207Z,1.90
2017-11-14T02:42:56.317Z,2.27
2017-11-14T02:45:25.392Z,1.60
2017-11-14T02:47:53.837Z,1.70
2017-11-14T02:50:22.149Z,1.73
2017-11-14T02:52:50.459Z,1.77
2017-11-14T02:55:19.568Z,1.87
2017-11-14T02:57:48.679Z,1.80
2017-11-14T03:00:16.988Z,2.37
2017-11-14T03:02:45.293Z,1.60
2017-11-14T03:05:13.589Z,2.23
2017-11-14T03:07:43.403Z,1.97
2017-11-14T03:10:13.219Z,1.93
2017-11-14T03:12:41.512Z,2.07
2017-11-14T03:15:09.844Z,2.40
2017-11-14T03:17:38.140Z,1.70
2017-11-14T03:20:06.487Z,1.97
2017-11-14T03:22:34.818Z,2.00
2017-11-14T03:25:03.120Z,2.17
2017-11-14T03:27:32.211Z,2.17
2017-11-14T03:30:00.531Z,2.07
2017-11-14T03:32:28.853Z,1.97
2017-11-14T03:34:57.156Z,2.03
2017-11-14T03:37:25.451Z,2.30
2017-11-14T03:39:53.869Z,1.80
2017-11-14T03:42:22.175Z,1.53
2017-11-14T03:44:50.502Z,3.33
2017-11-14T03:47:19.624Z,1.90
2017-11-14T03:49:47.921Z,2.30
2017-11-14T03:52:16.237Z,2.00
2017-11-14T03:54:46.042Z,1.83
2017-11-14T03:57:14.336Z,1.90
2017-11-14T03:59:42.633Z,1.50
2017-11-14T04:02:10.956Z,1.93
2017-11-14T04:04:39.352Z,1.53
2017-11-14T04:07:07.661Z,1.50
2017-11-14T04:09:35.961Z,2.07
2017-11-14T04:12:04.268Z,2.93
2017-11-14T04:14:33.346Z,1.37
2017-11-14T04:17:02.392Z,1.50
2017-11-14T04:19:30.707Z,1.70
2017-11-14T04:21:59.019Z,1.57
2017-11-14T04:24:28.094Z,1.30
2017-11-14T04:26:56.448Z,1.23
2017-11-14T04:29:24.784Z,2.07
2017-11-14T04:31:53.848Z,1.73
2017-11-14T04:34:22.225Z,1.40
2017-11-14T04:36:50.537Z,2.20
2017-11-14T04:39:19.602Z,1.53
2017-11-14T04:41:47.899Z,1.63
2017-11-14T04:44:16.989Z,1.43
2017-11-14T04:46:45.349Z,2.03
2017-11-14T04:49:13.642Z,2.23
2017-11-14T04:51:41.973Z,1.77
2017-11-14T04:54:11.028Z,2.07
2017-11-14T04:56:39.322Z,2.00
2017-11-14T04:59:07.660Z,2.10
2017-11-14T05:01:35.961Z,1.97
2017-11-14T05:04:04.260Z,3.20
2017-11-14T05:06:33.326Z,1.93
2017-11-14T05:09:01.640Z,2.10
2017-11-14T05:11:29.940Z,2.27
2017-11-14T05:13:58.257Z,2.40
2017-11-14T05:16:26.546Z,2.30
2017-11-14T05:18:54.846Z,2.30
2017-11-14T05:21:23.147Z,2.70
2017-11-14T05:23:51.451Z,2.57
2017-11-14T05:26:19.751Z,1.90
2017-11-14T05:28:48.814Z,1.90
2017-11-14T05:31:17.120Z,2.50
2017-11-14T05:33:46.177Z,2.47
2017-11-14T05:36:14.458Z,2.60
2017-11-14T05:38:43.517Z,2.00
2017-11-14T05:41:11.844Z,2.40
2017-11-14T05:43:40.152Z,2.10
2017-11-14T05:46:09.228Z,2.40
2017-11-14T05:48:37.545Z,2.17
2017-11-14T05:51:06.645Z,1.83
2017-11-14T05:53:35.731Z,2.30
2017-11-14T05:56:04.828Z,1.90
2017-11-14T05:58:33.132Z,2.10
2017-11-14T06:01:02.240Z,2.07
2017-11-14T06:03:30.544Z,2.33
2017-11-14T06:05:58.840Z,1.93
2017-11-14T06:08:27.256Z,2.10
2017-11-14T06:10:55.542Z,2.10
2017-11-14T06:13:23.855Z,2.40
2017-11-14T06:15:52.139Z,2.00
2017-11-14T06:18:20.522Z,2.90
2017-11-14T06:20:48.843Z,2.33
2017-11-14T06:23:17.141Z,2.10
2017-11-14T06:25:45.453Z,2.50
2017-11-14T06:28:13.759Z,1.83
2017-11-14T06:30:42.057Z,2.60
2017-11-14T06:33:10.362Z,1.80
2017-11-14T06:35:38.676Z,1.90
2017-11-14T06:38:07.741Z,2.10
2017-11-14T06:40:36.047Z,2.13
2017-11-14T06:43:05.163Z,2.20
2017-11-14T06:45:33.482Z,2.30
2017-11-14T06:48:02.536Z,2.50
2017-11-14T06:50:31.584Z,2.50
2017-11-14T06:53:00.045Z,2.00
2017-11-14T06:55:28.336Z,2.50
2017-11-14T06:57:56.637Z,2.40
2017-11-14T07:00:24.930Z,2.70
2017-11-14T07:02:53.250Z,2.90
2017-11-14T07:05:22.318Z,2.00
2017-11-14T07:07:52.110Z,2.10
2017-11-14T07:10:20.430Z,2.33
2017-11-14T07:12:49.497Z,2.70
2017-11-14T07:15:17.803Z,2.40
2017-11-14T07:17:46.101Z,2.40
2017-11-14T07:20:14.419Z,3.00
2017-11-14T07:22:42.724Z,2.70
2017-11-14T07:25:11.062Z,2.87
2017-11-14T07:27:39.460Z,2.50
2017-11-14T07:30:07.795Z,2.37
2017-11-14T07:32:36.117Z,2.60
2017-11-14T07:35:04.438Z,2.13
2017-11-14T07:37:32.749Z,3.13
2017-11-14T07:40:01.821Z,3.13
2017-11-14T07:42:30.108Z,2.60
2017-11-14T07:44:58.404Z,3.00
2017-11-14T07:47:26.709Z,2.70
2017-11-14T07:49:55.048Z,2.53
2017-11-14T07:52:23.353Z,2.53
2017-11-14T07:54:52.425Z,2.13
2017-11-14T07:57:21.501Z,2.73
2017-11-14T07:59:49.826Z,2.53
2017-11-14T08:02:18.465Z,2.77
2017-11-14T08:04:46.763Z,2.30
2017-11-14T08:07:15.055Z,3.27
2017-11-14T08:09:43.361Z,2.60
2017-11-14T08:12:12.443Z,3.00
2017-11-14T08:14:40.739Z,2.53
2017-11-14T08:17:09.856Z,2.37
2017-11-14T08:19:38.914Z,2.60
2017-11-14T08:22:07.224Z,2.63
2017-11-14T08:24:37.121Z,3.70
2017-11-14T08:27:06.212Z,2.40
2017-11-14T08:29:34.602Z,2.60
2017-11-14T08:32:02.906Z,2.93
2017-11-14T08:34:32.104Z,2.80
2017-11-14T08:37:01.187Z,2.87
2017-11-14T08:39:30.276Z,2.83
2017-11-14T08:41:58.583Z,3.03
2017-11-14T08:44:26.917Z,2.70
2017-11-14T08:46:55.227Z,3.43
2017-11-14T08:49:24.318Z,3.07
2017-11-14T08:51:52.643Z,3.33
2017-11-14T08:54:21.716Z,3.20
2017-11-14T08:56:50.022Z,2.90
2017-11-14T08:59:19.088Z,3.40
2017-11-14T09:01:48.970Z,3.30
2017-11-14T09:04:17.315Z,3.47
2017-11-14T09:06:46.536Z,3.10
2017-11-14T09:09:14.849Z,3.03
2017-11-14T09:11:43.154Z,3.30
2017-11-14T09:14:11.467Z,3.90
2017-11-14T09:16:40.546Z,2.80
2017-11-14T09:19:08.866Z,4.33
2017-11-14T09:21:37.188Z,3.30
2017-11-14T09:24:05.503Z,3.20
2017-11-14T09:26:34.363Z,3.97
2017-11-14T09:29:02.691Z,4.13
2017-11-14T09:31:31.773Z,4.30
2017-11-14T09:34:00.096Z,4.63
2017-11-14T09:36:28.414Z,5.63
2017-11-14T09:38:56.724Z,4.60
2017-11-14T09:41:26.084Z,5.37
2017-11-14T09:43:54.408Z,4.70
2017-11-14T09:46:22.718Z,6.50
2017-11-14T09:48:51.124Z,5.10
2017-11-14T09:51:19.460Z,5.10
2017-11-14T09:53:48.632Z,5.10
2017-11-14T09:56:17.739Z,5.23
2017-11-14T09:58:47.644Z,5.83
2017-11-14T10:01:15.968Z,5.30
2017-11-14T10:03:45.039Z,5.67
2017-11-14T10:06:13.342Z,5.40
2017-11-14T10:08:42.444Z,5.50
2017-11-14T10:11:11.533Z,5.40
2017-11-14T10:13:39.855Z,6.80
2017-11-14T10:16:08.173Z,4.80
2017-11-14T10:18:36.505Z,5.20
2017-11-14T10:21:04.850Z,5.17
2017-11-14T10:23:33.161Z,5.37
2017-11-14T10:26:02.312Z,5.50
2017-11-14T10:28:30.703Z,5.30
2017-11-14T10:30:59.022Z,5.87
2017-11-14T10:33:28.179Z,5.60
2017-11-14T10:35:56.591Z,5.03
2017-11-14T10:38:24.910Z,5.10
2017-11-14T10:40:53.230Z,5.23
2017-11-14T10:43:21.685Z,5.03
2017-11-14T10:45:50.034Z,5.50
2017-11-14T10:48:19.164Z,5.07
2017-11-14T10:50:47.491Z,5.10
2017-11-14T10:53:15.860Z,4.80
2017-11-14T10:55:44.194Z,5.10
2017-11-14T10:58:12.509Z,5.50
2017-11-14T11:00:40.838Z,5.43
2017-11-14T11:03:09.980Z,5.60
2017-11-14T11:05:38.322Z,5.50
2017-11-14T11:08:07.408Z,5.50
2017-11-14T11:10:35.763Z,5.23
2017-11-14T11:13:04.093Z,4.90
2017-11-14T11:15:33.180Z,6.13
2017-11-14T11:18:01.559Z,5.60
2017-11-14T11:20:30.632Z,6.30
2017-11-14T11:22:58.955Z,5.37
2017-11-14T11:25:28.033Z,5.67
2017-11-14T11:27:56.358Z,5.27
2017-11-14T11:30:24.671Z,6.17
2017-11-14T11:32:53.924Z,5.33
2017-11-14T11:35:23.002Z,5.37
2017-11-14T11:37:51.314Z,6.20
2017-11-14T11:40:19.622Z,5.30
2017-11-14T11:42:48.024Z,6.63
2017-11-14T11:45:16.354Z,5.20
2017-11-14T11:47:44.759Z,6.63
2017-11-14T11:50:13.113Z,6.90
2017-11-14T11:52:41.423Z,7.57
2017-11-14T11:55:09.741Z,8.47
2017-11-14T11:57:38.066Z,8.43
2017-11-14T12:00:07.152Z,7.67
2017-11-14T12:02:36.218Z,8.10
2017-11-14T12:05:04.542Z,8.60
2017-11-14T12:07:33.766Z,8.97
2017-11-14T12:10:02.086Z,8.93
2017-11-14T12:12:30.408Z,8.40
2017-11-14T12:14:59.503Z,8.80
2017-11-14T12:17:28.600Z,8.90
2017-11-14T12:19:57.673Z,8.77
2017-11-14T12:22:26.064Z,9.80
2017-11-14T12:24:54.393Z,8.77
2017-11-14T12:27:23.120Z,9.00
2017-11-14T12:29:51.437Z,8.30
2017-11-14T12:32:20.532Z,9.33
2017-11-14T12:34:49.612Z,10.20
2017-11-14T12:37:17.927Z,9.23
2017-11-14T12:39:47.015Z,9.70
2017-11-14T12:42:16.123Z,9.90
2017-11-14T12:44:44.461Z,9.70
2017-11-14T12:47:12.771Z,10.00
2017-11-14T12:49:41.097Z,9.50
2017-11-14T12:52:09.416Z,10.60
2017-11-14T12:54:37.706Z,9.57
2017-11-14T12:57:06.088Z,9.10
2017-11-14T12:59:34.422Z,9.73
2017-11-14T13:02:02.749Z,10.47
2017-11-14T13:04:31.065Z,10.53
2017-11-14T13:07:00.145Z,9.80
2017-11-14T13:09:28.464Z,9.90
2017-11-14T13:11:56.771Z,11.30
2017-11-14T13:14:25.087Z,10.83
2017-11-14T13:16:53.509Z,11.10
2017-11-14T13:19:21.844Z,10.00
2017-11-14T13:21:50.161Z,10.87
2017-11-14T13:24:18.469Z,9.57
2017-11-14T13:26:46.811Z,11.73
2017-11-14T13:29:16.004Z,11.23
2017-11-14T13:31:44.367Z,11.87
2017-11-14T13:34:12.667Z,11.13
2017-11-14T13:36:40.997Z,11.60
2017-11-14T13:39:09.324Z,9.57
2017-11-14T13:41:37.694Z,11.00
2017-11-14T13:44:06.001Z,9.20
2017-11-14T13:46:35.130Z,10.00
2017-11-14T13:49:03.458Z,10.03
2017-11-14T13:51:31.819Z,8.00
2017-11-14T13:54:00.129Z,8.93
2017-11-14T13:56:28.453Z,9.83
2017-11-14T13:58:56.780Z,8.70
2017-11-14T14:01:25.105Z,10.07
2017-11-14T14:03:53.443Z,9.90
2017-11-14T14:06:21.772Z,10.53
2017-11-14T14:08:50.092Z,9.53
2017-11-14T14:11:18.402Z,7.93
2017-11-14T14:13:46.724Z,7.93
2017-11-14T14:16:15.027Z,8.00
2017-11-14T14:18:43.354Z,7.50
2017-11-14T14:21:11.701Z,7.80
2017-11-14T14:23:40.059Z,7.10
2017-11-14T14:26:08.361Z,7.20
2017-11-14T14:28:36.695Z,6.30
2017-11-14T14:31:05.785Z,7.17
2017-11-14T14:33:34.096Z,7.20
2017-11-14T14:36:02.439Z,6.37
2017-11-14T14:38:30.765Z,7.03
2017-11-14T14:40:59.070Z,5.40
2017-11-14T14:43:27.393Z,6.10
2017-11-14T14:45:55.708Z,6.30
2017-11-14T14:48:24.042Z,6.63
2017-11-14T14:50:52.344Z,6.70
2017-11-14T14:53:21.419Z,6.80
2017-11-14T14:55:49.731Z,6.23
2017-11-14T14:58:18.806Z,6.70
2017-11-14T15:00:47.145Z,7.37
2017-11-14T15:03:15.440Z,7.10
2017-11-14T15:05:43.745Z,7.40
2017-11-14T15:08:12.063Z,7.70
2017-11-14T15:10:41.160Z,7.80
2017-11-14T15:13:10.249Z,7.27
2017-11-14T15:15:39.300Z,8.20
2017-11-14T15:18:07.608Z,7.90
2017-11-14T15:20:35.918Z,7.90
2017-11-14T15:23:05.001Z,8.20
2017-11-14T15:25:33.319Z,8.73
2017-11-14T15:28:01.624Z,9.30
2017-11-14T15:30:30.699Z,9.10
2017-11-14T15:32:59.086Z,9.53
2017-11-14T15:35:28.174Z,10.00
2017-11-14T15:37:56.506Z,9.10
2017-11-14T15:40:24.824Z,9.00
2017-11-14T15:42:53.909Z,9.30
2017-11-14T15:45:23.002Z,10.23
2017-11-14T15:47:51.318Z,9.50
2017-11-14T15:50:19.666Z,9.47
2017-11-14T15:52:47.975Z,10.20
2017-11-14T15:55:17.067Z,12.33
2017-11-14T15:57:46.244Z,12.70
2017-11-14T16:00:14.565Z,12.10
2017-11-14T16:02:42.874Z,13.20
2017-11-14T16:05:11.216Z,12.47
2017-11-14T16:07:40.304Z,13.07
2017-11-14T16:10:09.381Z,12.50
2017-11-14T16:12:37.713Z,12.03
2017-11-14T16:15:06.037Z,13.60
2017-11-14T16:17:34.389Z,13.50
2017-11-14T16:20:02.704Z,13.53
2017-11-14T16:22:31.021Z,13.80
2017-11-14T16:25:00.105Z,13.80
2017-11-14T16:27:28.530Z,15.20
2017-11-14T16:29:56.852Z,13.87
2017-11-14T16:32:25.158Z,15.20
2017-11-14T16:34:53.485Z,13.83
2017-11-14T16:37:21.801Z,14.27
2017-11-14T16:39:50.130Z,14.43
2017-11-14T16:42:18.525Z,14.80
2017-11-14T16:44:46.911Z,14.10
2017-11-14T16:47:15.228Z,14.27
2017-11-14T16:49:43.605Z,14.40
2017-11-14T16:52:11.948Z,14.40
2017-11-14T16:54:40.274Z,14.17
2017-11-14T16:57:08.598Z,15.57
2017-11-14T16:59:37.721Z,14.33
2017-11-14T17:02:06.026Z,15.10
2017-11-14T17:04:34.364Z,15.03
2017-11-14T17:07:02.681Z,16.10
2017-11-14T17:09:31.014Z,14.80
2017-11-14T17:12:00.098Z,15.37
2017-11-14T17:14:28.486Z,15.93
2017-11-14T17:16:57.578Z,15.53
2017-11-14T17:19:25.880Z,16.83
2017-11-14T17:21:54.978Z,14.60
2017-11-14T17:24:24.096Z,15.70
2017-11-14T17:26:52.425Z,14.90
2017-11-14T17:29:20.742Z,15.27
2017-11-14T17:31:49.838Z,14.67
2017-11-14T17:34:18.951Z,15.40
2017-11-14T17:36:48.027Z,16.83
2017-11-14T17:39:16.358Z,14.67
2017-11-14T17:41:44.690Z,14.00
2017-11-14T17:44:13.017Z,15.40
2017-11-14T17:46:41.373Z,16.13
2017-11-14T17:49:10.491Z,18.27
2017-11-14T17:51:38.809Z,15.30
2017-11-14T17:54:07.122Z,16.77
2017-11-14T17:56:35.438Z,14.50
2017-11-14T17:59:03.758Z,13.80
2017-11-14T18:01:32.078Z,14.60
2017-11-14T18:04:01.186Z,15.00
2017-11-14T18:06:30.277Z,15.10
2017-11-14T18:08:59.393Z,14.90
2017-11-14T18:11:27.796Z,16.67
2017-11-14T18:13:56.173Z,16.47
2017-11-14T18:16:24.472Z,17.80
2017-11-14T18:18:52.794Z,17.77
2017-11-14T18:21:21.876Z,17.43
2017-11-14T18:23:50.185Z,18.43
2017-11-14T18:26:19.420Z,17.63
2017-11-14T18:28:47.724Z,19.13
2017-11-14T18:31:16.031Z,18.13
2017-11-14T18:33:44.340Z,18.63
2017-11-14T18:36:13.459Z,17.43
2017-11-14T18:38:41.762Z,19.83
2017-11-14T18:41:10.074Z,18.87
2017-11-14T18:43:38.389Z,19.93
2017-11-14T18:46:07.480Z,18.60
2017-11-14T18:48:36.587Z,20.23
2017-11-14T18:51:04.923Z,19.60
2017-11-14T18:53:33.245Z,18.87
2017-11-14T18:56:02.358Z,19.07
2017-11-14T18:58:30.696Z,19.70
2017-11-14T19:00:59.022Z,20.50
2017-11-14T19:03:27.350Z,18.57
2017-11-14T19:05:55.685Z,18.97
2017-11-14T19:08:24.013Z,18.97
2017-11-14T19:10:52.364Z,20.33
2017-11-14T19:13:20.666Z,22.30
2017-11-14T19:15:48.985Z,19.60
2017-11-14T19:18:18.128Z,18.77
2017-11-14T19:20:46.448Z,21.67
2017-11-14T19:23:14.847Z,19.13
2017-11-14T19:25:43.944Z,20.03
2017-11-14T19:28:12.279Z,20.10
2017-11-14T19:30:40.598Z,19.40
2017-11-14T19:33:08.931Z,19.03
2017-11-14T19:35:37.236Z,19.77
2017-11-14T19:38:06.310Z,21.10
2017-11-14T19:40:34.649Z,24.70
2017-11-14T19:43:02.972Z,21.87
2017-11-14T19:45:31.287Z,22.33
2017-11-14T19:47:59.617Z,22.20
2017-11-14T19:50:28.692Z,22.10
2017-11-14T19:52:57.063Z,24.20
2017-11-14T19:55:25.397Z,22.50
2017-11-14T19:57:53.710Z,25.60
2017-11-14T20:00:22.059Z,24.43
2017-11-14T20:02:50.373Z,25.00
2017-11-14T20:05:18.694Z,24.23
2017-11-14T20:07:46.995Z,25.30
2017-11-14T20:10:16.107Z,26.83
2017-11-14T20:12:45.174Z,26.60
2017-11-14T20:15:13.515Z,25.37
2017-11-14T20:17:41.861Z,24.37
2017-11-14T20:20:10.185Z,24.23
2017-11-14T20:22:38.493Z,27.40
2017-11-14T20:25:06.820Z,27.00
2017-11-14T20:27:35.157Z,26.23
2017-11-14T20:30:03.475Z,26.00
2017-11-14T20:32:31.773Z,28.73
2017-11-14T20:35:00.081Z,28.90
2017-11-14T20:37:29.213Z,26.30
2017-11-14T20:39:57.537Z,25.60
2017-11-14T20:42:25.853Z,31.83
2017-11-14T20:44:54.172Z,25.80
2017-11-14T20:47:23.330Z,26.80
2017-11-14T20:49:51.645Z,27.27
2017-11-14T20:52:20.007Z,26.00
2017-11-14T20:54:48.353Z,24.60
2017-11-14T20:57:17.436Z,27.70
2017-11-14T20:59:45.740Z,25.50
2017-11-14T21:02:14.085Z,24.80
2017-11-14T21:04:43.181Z,23.03
2017-11-14T21:07:12.239Z,27.03
2017-11-14T21:09:40.562Z,32.50
2017-11-14T21:12:09.650Z,26.33
2017-11-14T21:14:38.737Z,26.07
2017-11-14T21:17:07.056Z,23.80
2017-11-14T21:19:35.376Z,23.20
2017-11-14T21:22:03.732Z,24.17
2017-11-14T21:24:32.050Z,22.90
2017-11-14T21:27:00.381Z,24.30
2017-11-14T21:29:28.685Z,23.90
2017-11-14T21:31:57.762Z,23.20
2017-11-14T21:34:26.079Z,24.20
2017-11-14T21:36:54.381Z,22.50
2017-11-14T21:39:22.721Z,24.13
2017-11-14T21:41:51.046Z,24.00
2017-11-14T21:44:19.353Z,25.00
2017-11-14T21:46:48.459Z,24.87
2017-11-14T21:49:17.538Z,24.93
2017-11-14T21:51:45.867Z,28.10
2017-11-14T21:54:14.197Z,27.50
2017-11-14T21:56:42.502Z,25.43
2017-11-14T21:59:11.582Z,31.03
2017-11-14T22:01:39.919Z,28.03
2017-11-14T22:04:08.242Z,27.20
2017-11-14T22:06:36.561Z,28.10
2017-11-14T22:09:04.905Z,25.13
2017-11-14T22:11:33.220Z,27.83
2017-11-14T22:14:02.317Z,27.23
2017-11-14T22:16:31.402Z,26.00
2017-11-14T22:19:00.543Z,27.03
2017-11-14T22:21:28.850Z,26.70
2017-11-14T22:23:57.176Z,26.97
2017-11-14T22:26:26.261Z,27.03
2017-11-14T22:28:54.574Z,28.43
2017-11-14T22:31:22.888Z,27.40
2017-11-14T22:33:51.176Z,27.33
2017-11-14T22:36:19.499Z,28.00
2017-11-14T22:38:48.614Z,29.13
2017-11-14T22:41:16.930Z,27.83
2017-11-14T22:43:45.236Z,29.27
2017-11-14T22:46:13.541Z,28.83
2017-11-14T22:48:42.700Z,30.13
2017-11-14T22:51:11.031Z,28.40
2017-11-14T22:53:40.125Z,28.97
2017-11-14T22:56:09.211Z,30.40
2017-11-14T22:58:37.523Z,28.50
2017-11-14T23:01:05.840Z,30.50
2017-11-14T23:03:34.339Z,27.97
2017-11-14T23:06:02.668Z,27.87
2017-11-14T23:08:31.000Z,29.63
2017-11-14T23:10:59.299Z,28.90
2017-11-14T23:13:27.626Z,29.70
2017-11-14T23:15:55.921Z,29.73
2017-11-14T23:18:24.245Z,31.30
2017-11-14T23:20:53.336Z,29.80
2017-11-14T23:23:21.663Z,31.10
2017-11-14T23:25:49.986Z,29.00
2017-11-14T23:28:18.383Z,30.63
2017-11-14T23:30:46.716Z,32.27
2017-11-14T23:33:15.045Z,32.00
2017-11-14T23:35:43.376Z,33.50
2017-11-14T23:38:11.693Z,32.57
2017-11-14T23:40:40.014Z,32.10
2017-11-14T23:43:09.105Z,35.17
2017-11-14T23:45:37.429Z,34.00
2017-11-14T23:48:05.741Z,34.33
2017-11-14T23:50:34.080Z,33.93
2017-11-14T23:53:03.528Z,33.93
2017-11-14T23:55:31.854Z,34.00
2017-11-14T23:58:01.242Z,34.10
